sensor_id;sensor_type;location;lat;lon;timestamp;P1;durP1;ratioP1;P2;durP2;ratioP2
47429;SDS011;33181;49.246;7.372;2022-09-09T00:04:31;4.07;;;2.40;;
47429;SDS011;33181;49.246;7.372;2022-09-09T00:09:53;8.70;;;2.67;;
47429;SDS011;33181;49.246;7.372;2022-09-09T00:21:37;4.93;;;2.50;;
47429;SDS011;33181;49.246;7.372;2022-09-09T00:27:01;4.80;;;2.53;;
47429;SDS011;33181;49.246;7.372;2022-09-09T00:32:53;6.10;;;2.40;;
47429;SDS011;33181;49.246;7.372;2022-09-09T00:36:04;4.60;;;2.40;;
47429;SDS011;33181;49.246;7.372;2022-09-09T00:38:35;3.87;;;2.33;;
47429;SDS011;33181;49.246;7.372;2022-09-09T00:46:49;8.53;;;2.43;;
47429;SDS011;33181;49.246;7.372;2022-09-09T00:52:32;6.47;;;2.13;;
47429;SDS011;33181;49.246;7.372;2022-09-09T00:58:09;4.70;;;2.00;;
47429;SDS011;33181;49.246;7.372;2022-09-09T01:00:39;5.17;;;2.20;;
47429;SDS011;33181;49.246;7.372;2022-09-09T01:08:59;4.07;;;2.40;;
47429;SDS011;33181;49.246;7.372;2022-09-09T01:20:12;4.20;;;1.97;;
47429;SDS011;33181;49.246;7.372;2022-09-09T01:26:50;8.30;;;2.60;;
47429;SDS011;33181;49.246;7.372;2022-09-09T01:29:02;5.53;;;2.20;;
47429;SDS011;33181;49.246;7.372;2022-09-09T01:31:38;3.60;;;1.93;;
47429;SDS011;33181;49.246;7.372;2022-09-09T01:34:27;3.80;;;1.80;;
47429;SDS011;33181;49.246;7.372;2022-09-09T01:39:34;7.40;;;2.47;;
47429;SDS011;33181;49.246;7.372;2022-09-09T01:42:04;4.87;;;2.03;;
47429;SDS011;33181;49.246;7.372;2022-09-09T01:44:36;5.10;;;2.03;;
47429;SDS011;33181;49.246;7.372;2022-09-09T01:47:02;5.97;;;2.30;;
47429;SDS011;33181;49.246;7.372;2022-09-09T01:49:31;3.57;;;2.00;;
47429;SDS011;33181;49.246;7.372;2022-09-09T01:51:58;4.63;;;2.10;;
47429;SDS011;33181;49.246;7.372;2022-09-09T01:54:26;4.43;;;1.90;;
47429;SDS011;33181;49.246;7.372;2022-09-09T02:00:03;5.90;;;2.10;;
47429;SDS011;33181;49.246;7.372;2022-09-09T02:08:56;8.90;;;2.10;;
47429;SDS011;33181;49.246;7.372;2022-09-09T02:11:25;4.40;;;2.10;;
47429;SDS011;33181;49.246;7.372;2022-09-09T02:13:53;4.30;;;1.97;;
47429;SDS011;33181;49.246;7.372;2022-09-09T02:19:11;3.50;;;1.70;;
47429;SDS011;33181;49.246;7.372;2022-09-09T02:21:42;4.43;;;1.70;;
47429;SDS011;33181;49.246;7.372;2022-09-09T02:24:10;4.27;;;1.70;;
47429;SDS011;33181;49.246;7.372;2022-09-09T02:26:41;3.70;;;1.67;;
47429;SDS011;33181;49.246;7.372;2022-09-09T02:29:13;3.27;;;1.67;;
47429;SDS011;33181;49.246;7.372;2022-09-09T02:31:47;4.93;;;1.87;;
47429;SDS011;33181;49.246;7.372;2022-09-09T02:34:14;5.20;;;1.80;;
47429;SDS011;33181;49.246;7.372;2022-09-09T02:36:45;3.27;;;2.00;;
47429;SDS011;33181;49.246;7.372;2022-09-09T02:39:13;4.50;;;2.07;;
47429;SDS011;33181;49.246;7.372;2022-09-09T02:41:40;3.63;;;1.80;;
47429;SDS011;33181;49.246;7.372;2022-09-09T02:44:11;4.40;;;1.80;;
47429;SDS011;33181;49.246;7.372;2022-09-09T02:46:46;4.43;;;1.80;;
47429;SDS011;33181;49.246;7.372;2022-09-09T02:52:19;6.20;;;1.73;;
47429;SDS011;33181;49.246;7.372;2022-09-09T02:54:58;3.50;;;1.97;;
47429;SDS011;33181;49.246;7.372;2022-09-09T02:57:33;4.30;;;1.80;;
47429;SDS011;33181;49.246;7.372;2022-09-09T03:00:01;4.47;;;1.63;;
47429;SDS011;33181;49.246;7.372;2022-09-09T03:02:29;6.23;;;1.57;;
47429;SDS011;33181;49.246;7.372;2022-09-09T03:04:55;4.53;;;1.70;;
47429;SDS011;33181;49.246;7.372;2022-09-09T03:07:21;6.53;;;2.27;;
47429;SDS011;33181;49.246;7.372;2022-09-09T03:09:47;2.80;;;1.70;;
47429;SDS011;33181;49.246;7.372;2022-09-09T03:12:13;3.50;;;1.90;;
47429;SDS011;33181;49.246;7.372;2022-09-09T03:14:39;3.10;;;1.70;;
47429;SDS011;33181;49.246;7.372;2022-09-09T03:17:05;7.47;;;2.47;;
47429;SDS011;33181;49.246;7.372;2022-09-09T03:19:31;5.20;;;1.80;;
47429;SDS011;33181;49.246;7.372;2022-09-09T03:21:57;5.13;;;1.90;;
47429;SDS011;33181;49.246;7.372;2022-09-09T03:24:24;6.17;;;1.70;;
47429;SDS011;33181;49.246;7.372;2022-09-09T03:26:50;6.70;;;2.57;;
47429;SDS011;33181;49.246;7.372;2022-09-09T03:29:16;3.83;;;1.80;;
47429;SDS011;33181;49.246;7.372;2022-09-09T03:31:43;3.13;;;1.90;;
47429;SDS011;33181;49.246;7.372;2022-09-09T03:34:10;3.30;;;1.60;;
47429;SDS011;33181;49.246;7.372;2022-09-09T03:36:36;7.63;;;2.73;;
47429;SDS011;33181;49.246;7.372;2022-09-09T03:39:02;4.50;;;1.90;;
47429;SDS011;33181;49.246;7.372;2022-09-09T03:41:28;3.73;;;1.80;;
47429;SDS011;33181;49.246;7.372;2022-09-09T03:43:55;3.60;;;1.70;;
47429;SDS011;33181;49.246;7.372;2022-09-09T03:46:22;4.90;;;2.17;;
47429;SDS011;33181;49.246;7.372;2022-09-09T03:48:50;4.40;;;2.07;;
47429;SDS011;33181;49.246;7.372;2022-09-09T03:51:17;5.30;;;2.10;;
47429;SDS011;33181;49.246;7.372;2022-09-09T03:53:44;4.73;;;2.03;;
47429;SDS011;33181;49.246;7.372;2022-09-09T03:56:09;4.00;;;1.80;;
47429;SDS011;33181;49.246;7.372;2022-09-09T03:58:38;2.87;;;1.70;;
47429;SDS011;33181;49.246;7.372;2022-09-09T04:03:33;6.93;;;2.37;;
47429;SDS011;33181;49.246;7.372;2022-09-09T04:05:59;5.17;;;2.30;;
47429;SDS011;33181;49.246;7.372;2022-09-09T04:08:28;4.97;;;2.07;;
47429;SDS011;33181;49.246;7.372;2022-09-09T04:10:56;4.77;;;2.00;;
47429;SDS011;33181;49.246;7.372;2022-09-09T04:13:22;4.53;;;2.30;;
47429;SDS011;33181;49.246;7.372;2022-09-09T04:15:51;3.37;;;2.03;;
47429;SDS011;33181;49.246;7.372;2022-09-09T04:18:19;4.37;;;2.03;;
47429;SDS011;33181;49.246;7.372;2022-09-09T04:20:48;7.00;;;2.13;;
47429;SDS011;33181;49.246;7.372;2022-09-09T04:23:16;4.17;;;1.93;;
47429;SDS011;33181;49.246;7.372;2022-09-09T04:25:44;2.83;;;1.83;;
47429;SDS011;33181;49.246;7.372;2022-09-09T04:28:15;6.70;;;2.23;;
47429;SDS011;33181;49.246;7.372;2022-09-09T04:30:42;7.90;;;2.20;;
47429;SDS011;33181;49.246;7.372;2022-09-09T04:33:09;4.67;;;1.87;;
47429;SDS011;33181;49.246;7.372;2022-09-09T04:35:38;5.50;;;1.90;;
47429;SDS011;33181;49.246;7.372;2022-09-09T04:38:08;4.60;;;2.13;;
47429;SDS011;33181;49.246;7.372;2022-09-09T04:40:34;4.60;;;2.00;;
47429;SDS011;33181;49.246;7.372;2022-09-09T04:43:01;4.40;;;2.20;;
47429;SDS011;33181;49.246;7.372;2022-09-09T04:45:31;7.93;;;2.20;;
47429;SDS011;33181;49.246;7.372;2022-09-09T04:47:58;7.23;;;2.20;;
47429;SDS011;33181;49.246;7.372;2022-09-09T04:50:24;4.47;;;2.30;;
47429;SDS011;33181;49.246;7.372;2022-09-09T04:52:50;6.20;;;1.93;;
47429;SDS011;33181;49.246;7.372;2022-09-09T04:55:16;4.20;;;2.10;;
47429;SDS011;33181;49.246;7.372;2022-09-09T04:57:42;5.00;;;2.50;;
47429;SDS011;33181;49.246;7.372;2022-09-09T05:00:08;5.97;;;2.17;;
47429;SDS011;33181;49.246;7.372;2022-09-09T05:02:39;6.23;;;2.00;;
47429;SDS011;33181;49.246;7.372;2022-09-09T05:05:07;3.90;;;2.00;;
47429;SDS011;33181;49.246;7.372;2022-09-09T05:07:38;6.60;;;2.30;;
47429;SDS011;33181;49.246;7.372;2022-09-09T05:10:04;6.10;;;2.10;;
47429;SDS011;33181;49.246;7.372;2022-09-09T05:12:30;3.57;;;2.17;;
47429;SDS011;33181;49.246;7.372;2022-09-09T05:14:57;7.50;;;2.10;;
47429;SDS011;33181;49.246;7.372;2022-09-09T05:17:23;4.40;;;2.00;;
47429;SDS011;33181;49.246;7.372;2022-09-09T05:19:49;5.47;;;2.30;;
47429;SDS011;33181;49.246;7.372;2022-09-09T05:22:21;6.83;;;2.10;;
47429;SDS011;33181;49.246;7.372;2022-09-09T05:24:50;3.57;;;2.10;;
47429;SDS011;33181;49.246;7.372;2022-09-09T05:27:17;4.20;;;2.03;;
47429;SDS011;33181;49.246;7.372;2022-09-09T05:29:44;6.00;;;2.50;;
47429;SDS011;33181;49.246;7.372;2022-09-09T05:32:11;4.40;;;2.17;;
47429;SDS011;33181;49.246;7.372;2022-09-09T05:34:38;6.37;;;2.20;;
47429;SDS011;33181;49.246;7.372;2022-09-09T05:37:04;3.93;;;1.90;;
47429;SDS011;33181;49.246;7.372;2022-09-09T05:39:31;7.07;;;2.73;;
47429;SDS011;33181;49.246;7.372;2022-09-09T05:41:57;4.80;;;2.00;;
47429;SDS011;33181;49.246;7.372;2022-09-09T05:44:23;8.03;;;2.13;;
47429;SDS011;33181;49.246;7.372;2022-09-09T05:46:52;5.07;;;2.20;;
47429;SDS011;33181;49.246;7.372;2022-09-09T05:49:19;4.73;;;2.07;;
47429;SDS011;33181;49.246;7.372;2022-09-09T05:51:45;4.33;;;2.23;;
47429;SDS011;33181;49.246;7.372;2022-09-09T05:54:11;8.80;;;2.40;;
47429;SDS011;33181;49.246;7.372;2022-09-09T05:56:40;5.50;;;2.23;;
47429;SDS011;33181;49.246;7.372;2022-09-09T05:59:06;6.77;;;2.30;;
47429;SDS011;33181;49.246;7.372;2022-09-09T06:01:33;4.30;;;2.23;;
47429;SDS011;33181;49.246;7.372;2022-09-09T06:04:01;6.60;;;2.77;;
47429;SDS011;33181;49.246;7.372;2022-09-09T06:06:33;8.63;;;2.77;;
47429;SDS011;33181;49.246;7.372;2022-09-09T06:09:05;4.97;;;2.43;;
47429;SDS011;33181;49.246;7.372;2022-09-09T06:11:35;5.83;;;2.27;;
47429;SDS011;33181;49.246;7.372;2022-09-09T06:14:03;7.20;;;2.43;;
47429;SDS011;33181;49.246;7.372;2022-09-09T06:16:30;5.13;;;2.53;;
47429;SDS011;33181;49.246;7.372;2022-09-09T06:18:59;6.67;;;2.70;;
47429;SDS011;33181;49.246;7.372;2022-09-09T06:21:28;5.83;;;2.23;;
47429;SDS011;33181;49.246;7.372;2022-09-09T06:23:57;7.27;;;2.10;;
47429;SDS011;33181;49.246;7.372;2022-09-09T06:26:25;6.03;;;2.70;;
47429;SDS011;33181;49.246;7.372;2022-09-09T06:28:55;6.83;;;2.00;;
47429;SDS011;33181;49.246;7.372;2022-09-09T06:31:23;5.63;;;2.17;;
47429;SDS011;33181;49.246;7.372;2022-09-09T06:33:55;4.10;;;2.20;;
47429;SDS011;33181;49.246;7.372;2022-09-09T06:36:23;4.07;;;1.90;;
47429;SDS011;33181;49.246;7.372;2022-09-09T06:38:54;4.10;;;2.10;;
47429;SDS011;33181;49.246;7.372;2022-09-09T06:41:21;3.67;;;1.80;;
47429;SDS011;33181;49.246;7.372;2022-09-09T06:43:50;3.50;;;2.13;;
47429;SDS011;33181;49.246;7.372;2022-09-09T06:46:16;6.67;;;2.60;;
47429;SDS011;33181;49.246;7.372;2022-09-09T06:48:47;6.70;;;2.40;;
47429;SDS011;33181;49.246;7.372;2022-09-09T06:53:46;8.07;;;2.40;;
47429;SDS011;33181;49.246;7.372;2022-09-09T06:56:17;8.60;;;2.30;;
47429;SDS011;33181;49.246;7.372;2022-09-09T06:58:43;7.90;;;2.97;;
47429;SDS011;33181;49.246;7.372;2022-09-09T07:01:10;8.53;;;2.50;;
47429;SDS011;33181;49.246;7.372;2022-09-09T07:03:42;6.27;;;2.27;;
47429;SDS011;33181;49.246;7.372;2022-09-09T07:06:14;4.90;;;2.20;;
47429;SDS011;33181;49.246;7.372;2022-09-09T07:08:43;7.30;;;2.30;;
47429;SDS011;33181;49.246;7.372;2022-09-09T07:11:13;4.60;;;2.37;;
47429;SDS011;33181;49.246;7.372;2022-09-09T07:13:38;10.77;;;2.60;;
47429;SDS011;33181;49.246;7.372;2022-09-09T07:18:32;8.43;;;2.70;;
47429;SDS011;33181;49.246;7.372;2022-09-09T07:20:58;7.63;;;2.60;;
47429;SDS011;33181;49.246;7.372;2022-09-09T07:23:24;8.20;;;2.30;;
47429;SDS011;33181;49.246;7.372;2022-09-09T07:25:50;10.60;;;2.20;;
47429;SDS011;33181;49.246;7.372;2022-09-09T07:28:17;6.10;;;2.70;;
47429;SDS011;33181;49.246;7.372;2022-09-09T07:30:58;6.30;;;2.77;;
47429;SDS011;33181;49.246;7.372;2022-09-09T07:33:29;5.17;;;2.47;;
47429;SDS011;33181;49.246;7.372;2022-09-09T07:38:55;5.23;;;2.30;;
47429;SDS011;33181;49.246;7.372;2022-09-09T07:41:28;5.43;;;2.37;;
47429;SDS011;33181;49.246;7.372;2022-09-09T07:44:05;8.00;;;2.23;;
47429;SDS011;33181;49.246;7.372;2022-09-09T07:46:34;7.10;;;2.50;;
47429;SDS011;33181;49.246;7.372;2022-09-09T07:49:01;6.70;;;2.70;;
47429;SDS011;33181;49.246;7.372;2022-09-09T07:51:30;11.33;;;2.60;;
47429;SDS011;33181;49.246;7.372;2022-09-09T07:54:06;7.73;;;2.53;;
47429;SDS011;33181;49.246;7.372;2022-09-09T07:56:36;10.30;;;2.87;;
47429;SDS011;33181;49.246;7.372;2022-09-09T07:59:04;9.47;;;3.13;;
47429;SDS011;33181;49.246;7.372;2022-09-09T08:01:35;8.13;;;2.30;;
47429;SDS011;33181;49.246;7.372;2022-09-09T08:04:08;8.30;;;2.77;;
47429;SDS011;33181;49.246;7.372;2022-09-09T08:06:43;7.83;;;2.70;;
47429;SDS011;33181;49.246;7.372;2022-09-09T08:09:11;7.07;;;2.60;;
47429;SDS011;33181;49.246;7.372;2022-09-09T08:11:38;12.17;;;2.83;;
47429;SDS011;33181;49.246;7.372;2022-09-09T08:14:05;9.50;;;2.67;;
47429;SDS011;33181;49.246;7.372;2022-09-09T08:16:33;8.90;;;3.03;;
47429;SDS011;33181;49.246;7.372;2022-09-09T08:19:03;10.63;;;2.87;;
47429;SDS011;33181;49.246;7.372;2022-09-09T08:21:32;7.10;;;2.93;;
47429;SDS011;33181;49.246;7.372;2022-09-09T08:24:01;8.03;;;2.80;;
47429;SDS011;33181;49.246;7.372;2022-09-09T08:26:31;5.10;;;2.77;;
47429;SDS011;33181;49.246;7.372;2022-09-09T08:29:00;8.70;;;2.50;;
47429;SDS011;33181;49.246;7.372;2022-09-09T08:31:29;6.93;;;2.37;;
47429;SDS011;33181;49.246;7.372;2022-09-09T08:33:58;7.37;;;2.67;;
47429;SDS011;33181;49.246;7.372;2022-09-09T08:36:27;5.00;;;2.10;;
47429;SDS011;33181;49.246;7.372;2022-09-09T08:38:55;7.93;;;2.90;;
47429;SDS011;33181;49.246;7.372;2022-09-09T08:47:04;12.23;;;2.47;;
47429;SDS011;33181;49.246;7.372;2022-09-09T08:58:24;9.40;;;2.60;;
47429;SDS011;33181;49.246;7.372;2022-09-09T09:07:16;7.60;;;2.50;;
47429;SDS011;33181;49.246;7.372;2022-09-09T09:12:38;9.70;;;2.67;;
47429;SDS011;33181;49.246;7.372;2022-09-09T09:15:25;6.20;;;2.70;;
47429;SDS011;33181;49.246;7.372;2022-09-09T09:17:55;10.83;;;2.70;;
47429;SDS011;33181;49.246;7.372;2022-09-09T09:20:42;8.70;;;3.10;;
47429;SDS011;33181;49.246;7.372;2022-09-09T09:23:41;5.80;;;2.50;;
47429;SDS011;33181;49.246;7.372;2022-09-09T09:26:15;6.00;;;2.40;;
47429;SDS011;33181;49.246;7.372;2022-09-09T09:28:43;7.77;;;2.50;;
47429;SDS011;33181;49.246;7.372;2022-09-09T09:31:10;8.30;;;3.27;;
47429;SDS011;33181;49.246;7.372;2022-09-09T09:36:09;7.60;;;2.60;;
47429;SDS011;33181;49.246;7.372;2022-09-09T09:38:35;9.57;;;2.40;;
47429;SDS011;33181;49.246;7.372;2022-09-09T09:41:02;7.73;;;2.73;;
47429;SDS011;33181;49.246;7.372;2022-09-09T09:43:29;8.60;;;2.50;;
47429;SDS011;33181;49.246;7.372;2022-09-09T09:45:58;10.10;;;2.70;;
47429;SDS011;33181;49.246;7.372;2022-09-09T09:48:25;5.47;;;2.40;;
47429;SDS011;33181;49.246;7.372;2022-09-09T09:50:53;12.50;;;2.83;;
47429;SDS011;33181;49.246;7.372;2022-09-09T09:53:28;7.60;;;3.17;;
47429;SDS011;33181;49.246;7.372;2022-09-09T09:55:58;12.97;;;2.93;;
47429;SDS011;33181;49.246;7.372;2022-09-09T09:58:31;9.10;;;3.00;;
47429;SDS011;33181;49.246;7.372;2022-09-09T10:01:03;8.60;;;3.03;;
47429;SDS011;33181;49.246;7.372;2022-09-09T10:03:35;5.80;;;2.90;;
47429;SDS011;33181;49.246;7.372;2022-09-09T10:06:04;5.00;;;2.73;;
47429;SDS011;33181;49.246;7.372;2022-09-09T10:08:32;8.10;;;3.07;;
47429;SDS011;33181;49.246;7.372;2022-09-09T10:11:22;8.43;;;3.20;;
47429;SDS011;33181;49.246;7.372;2022-09-09T10:14:20;5.20;;;2.70;;
47429;SDS011;33181;49.246;7.372;2022-09-09T10:16:56;10.63;;;3.53;;
47429;SDS011;33181;49.246;7.372;2022-09-09T10:19:36;10.10;;;3.47;;
47429;SDS011;33181;49.246;7.372;2022-09-09T10:27:38;9.80;;;3.83;;
47429;SDS011;33181;49.246;7.372;2022-09-09T10:30:23;9.93;;;3.00;;
47429;SDS011;33181;49.246;7.372;2022-09-09T10:33:10;6.70;;;2.60;;
47429;SDS011;33181;49.246;7.372;2022-09-09T10:38:29;6.20;;;2.93;;
47429;SDS011;33181;49.246;7.372;2022-09-09T10:52:41;5.60;;;2.27;;
47429;SDS011;33181;49.246;7.372;2022-09-09T10:55:33;5.60;;;1.97;;
47429;SDS011;33181;49.246;7.372;2022-09-09T10:58:09;6.53;;;2.20;;
47429;SDS011;33181;49.246;7.372;2022-09-09T11:00:44;3.23;;;1.97;;
47429;SDS011;33181;49.246;7.372;2022-09-09T11:03:19;5.10;;;2.10;;
47429;SDS011;33181;49.246;7.372;2022-09-09T11:05:53;4.30;;;1.90;;
47429;SDS011;33181;49.246;7.372;2022-09-09T11:08:38;3.93;;;1.90;;
47429;SDS011;33181;49.246;7.372;2022-09-09T11:25:05;8.27;;;2.30;;
47429;SDS011;33181;49.246;7.372;2022-09-09T11:27:50;5.17;;;2.00;;
47429;SDS011;33181;49.246;7.372;2022-09-09T11:36:26;5.00;;;2.10;;
47429;SDS011;33181;49.246;7.372;2022-09-09T11:42:05;5.30;;;2.10;;
47429;SDS011;33181;49.246;7.372;2022-09-09T11:44:38;6.47;;;2.30;;
47429;SDS011;33181;49.246;7.372;2022-09-09T11:47:15;4.83;;;1.97;;
47429;SDS011;33181;49.246;7.372;2022-09-09T11:55:47;5.13;;;2.07;;
47429;SDS011;33181;49.246;7.372;2022-09-09T11:58:31;4.80;;;2.27;;
47429;SDS011;33181;49.246;7.372;2022-09-09T12:01:27;8.97;;;2.80;;
47429;SDS011;33181;49.246;7.372;2022-09-09T12:06:41;5.57;;;2.40;;
47429;SDS011;33181;49.246;7.372;2022-09-09T12:09:43;4.87;;;2.47;;
47429;SDS011;33181;49.246;7.372;2022-09-09T12:12:45;5.73;;;2.20;;
47429;SDS011;33181;49.246;7.372;2022-09-09T12:17:47;3.67;;;1.90;;
47429;SDS011;33181;49.246;7.372;2022-09-09T12:20:42;4.17;;;1.83;;
47429;SDS011;33181;49.246;7.372;2022-09-09T12:23:19;3.90;;;1.80;;
47429;SDS011;33181;49.246;7.372;2022-09-09T12:39:54;5.03;;;1.70;;
47429;SDS011;33181;49.246;7.372;2022-09-09T12:42:22;8.20;;;2.50;;
47429;SDS011;33181;49.246;7.372;2022-09-09T12:47:19;4.00;;;1.97;;
47429;SDS011;33181;49.246;7.372;2022-09-09T12:49:58;3.90;;;2.00;;
47429;SDS011;33181;49.246;7.372;2022-09-09T12:52:26;3.17;;;1.93;;
47429;SDS011;33181;49.246;7.372;2022-09-09T12:54:59;4.57;;;2.10;;
47429;SDS011;33181;49.246;7.372;2022-09-09T12:57:30;5.30;;;2.00;;
47429;SDS011;33181;49.246;7.372;2022-09-09T13:00:14;6.23;;;2.13;;
47429;SDS011;33181;49.246;7.372;2022-09-09T13:02:46;2.90;;;1.87;;
47429;SDS011;33181;49.246;7.372;2022-09-09T13:05:42;3.30;;;1.80;;
47429;SDS011;33181;49.246;7.372;2022-09-09T13:08:09;4.93;;;1.87;;
47429;SDS011;33181;49.246;7.372;2022-09-09T13:10:43;4.10;;;1.70;;
47429;SDS011;33181;49.246;7.372;2022-09-09T13:13:21;5.90;;;1.77;;
47429;SDS011;33181;49.246;7.372;2022-09-09T13:16:00;4.10;;;1.70;;
47429;SDS011;33181;49.246;7.372;2022-09-09T13:18:30;5.47;;;1.70;;
47429;SDS011;33181;49.246;7.372;2022-09-09T13:21:03;2.80;;;1.40;;
47429;SDS011;33181;49.246;7.372;2022-09-09T13:23:30;4.10;;;1.80;;
47429;SDS011;33181;49.246;7.372;2022-09-09T13:26:02;3.23;;;1.90;;
47429;SDS011;33181;49.246;7.372;2022-09-09T13:28:52;3.07;;;1.97;;
47429;SDS011;33181;49.246;7.372;2022-09-09T13:31:29;4.17;;;1.90;;
47429;SDS011;33181;49.246;7.372;2022-09-09T13:33:57;3.80;;;2.13;;
47429;SDS011;33181;49.246;7.372;2022-09-09T13:36:30;4.50;;;2.10;;
47429;SDS011;33181;49.246;7.372;2022-09-09T13:39:00;4.77;;;2.30;;
47429;SDS011;33181;49.246;7.372;2022-09-09T13:41:30;7.03;;;2.20;;
47429;SDS011;33181;49.246;7.372;2022-09-09T13:44:00;4.20;;;2.30;;
47429;SDS011;33181;49.246;7.372;2022-09-09T13:54:06;3.87;;;2.00;;
47429;SDS011;33181;49.246;7.372;2022-09-09T13:56:36;5.07;;;1.73;;
47429;SDS011;33181;49.246;7.372;2022-09-09T13:59:05;4.30;;;2.37;;
47429;SDS011;33181;49.246;7.372;2022-09-09T14:01:36;4.00;;;1.80;;
47429;SDS011;33181;49.246;7.372;2022-09-09T14:04:02;4.30;;;2.00;;
47429;SDS011;33181;49.246;7.372;2022-09-09T14:06:31;4.27;;;1.80;;
47429;SDS011;33181;49.246;7.372;2022-09-09T14:08:57;3.60;;;1.70;;
47429;SDS011;33181;49.246;7.372;2022-09-09T14:11:23;3.07;;;1.70;;
47429;SDS011;33181;49.246;7.372;2022-09-09T14:13:49;2.77;;;1.60;;
47429;SDS011;33181;49.246;7.372;2022-09-09T14:16:16;3.97;;;1.83;;
47429;SDS011;33181;49.246;7.372;2022-09-09T14:18:44;2.97;;;1.70;;
47429;SDS011;33181;49.246;7.372;2022-09-09T14:21:11;3.70;;;1.90;;
47429;SDS011;33181;49.246;7.372;2022-09-09T14:23:38;3.03;;;1.50;;
47429;SDS011;33181;49.246;7.372;2022-09-09T14:26:07;3.60;;;1.77;;
47429;SDS011;33181;49.246;7.372;2022-09-09T14:28:34;2.63;;;1.30;;
47429;SDS011;33181;49.246;7.372;2022-09-09T14:31:01;3.17;;;1.60;;
47429;SDS011;33181;49.246;7.372;2022-09-09T14:33:29;2.60;;;1.70;;
47429;SDS011;33181;49.246;7.372;2022-09-09T14:36:02;4.53;;;1.67;;
47429;SDS011;33181;49.246;7.372;2022-09-09T14:38:29;3.80;;;2.03;;
47429;SDS011;33181;49.246;7.372;2022-09-09T14:40:57;3.47;;;1.83;;
47429;SDS011;33181;49.246;7.372;2022-09-09T14:43:23;4.00;;;2.07;;
47429;SDS011;33181;49.246;7.372;2022-09-09T14:45:49;3.97;;;2.10;;
47429;SDS011;33181;49.246;7.372;2022-09-09T14:48:16;2.93;;;1.80;;
47429;SDS011;33181;49.246;7.372;2022-09-09T14:50:43;3.73;;;1.70;;
47429;SDS011;33181;49.246;7.372;2022-09-09T14:53:09;3.70;;;1.80;;
47429;SDS011;33181;49.246;7.372;2022-09-09T14:55:35;4.67;;;1.90;;
47429;SDS011;33181;49.246;7.372;2022-09-09T14:58:03;4.13;;;1.87;;
47429;SDS011;33181;49.246;7.372;2022-09-09T15:00:31;3.37;;;1.70;;
47429;SDS011;33181;49.246;7.372;2022-09-09T15:02:57;5.17;;;2.10;;
47429;SDS011;33181;49.246;7.372;2022-09-09T15:05:23;4.83;;;2.20;;
47429;SDS011;33181;49.246;7.372;2022-09-09T15:07:51;6.50;;;2.17;;
47429;SDS011;33181;49.246;7.372;2022-09-09T15:10:17;4.90;;;2.23;;
47429;SDS011;33181;49.246;7.372;2022-09-09T15:12:43;3.73;;;2.23;;
47429;SDS011;33181;49.246;7.372;2022-09-09T15:15:09;3.23;;;1.63;;
47429;SDS011;33181;49.246;7.372;2022-09-09T15:17:35;4.10;;;2.10;;
47429;SDS011;33181;49.246;7.372;2022-09-09T15:20:02;5.63;;;2.20;;
47429;SDS011;33181;49.246;7.372;2022-09-09T15:22:30;4.33;;;1.80;;
47429;SDS011;33181;49.246;7.372;2022-09-09T15:24:57;4.43;;;1.90;;
47429;SDS011;33181;49.246;7.372;2022-09-09T15:27:22;5.63;;;1.63;;
47429;SDS011;33181;49.246;7.372;2022-09-09T15:29:49;4.27;;;1.90;;
47429;SDS011;33181;49.246;7.372;2022-09-09T15:32:16;5.60;;;2.00;;
47429;SDS011;33181;49.246;7.372;2022-09-09T15:34:43;3.37;;;1.70;;
47429;SDS011;33181;49.246;7.372;2022-09-09T15:37:11;4.30;;;2.00;;
47429;SDS011;33181;49.246;7.372;2022-09-09T15:39:40;3.93;;;2.23;;
47429;SDS011;33181;49.246;7.372;2022-09-09T15:42:06;5.17;;;2.20;;
47429;SDS011;33181;49.246;7.372;2022-09-09T15:44:51;5.30;;;1.83;;
47429;SDS011;33181;49.246;7.372;2022-09-09T15:47:17;3.13;;;1.73;;
47429;SDS011;33181;49.246;7.372;2022-09-09T15:49:43;5.40;;;2.00;;
47429;SDS011;33181;49.246;7.372;2022-09-09T15:52:09;3.87;;;2.00;;
47429;SDS011;33181;49.246;7.372;2022-09-09T15:54:36;5.07;;;2.27;;
47429;SDS011;33181;49.246;7.372;2022-09-09T15:57:04;3.37;;;2.00;;
47429;SDS011;33181;49.246;7.372;2022-09-09T15:59:33;4.07;;;1.90;;
47429;SDS011;33181;49.246;7.372;2022-09-09T16:01:59;5.07;;;2.17;;
47429;SDS011;33181;49.246;7.372;2022-09-09T16:04:25;4.90;;;1.83;;
47429;SDS011;33181;49.246;7.372;2022-09-09T16:06:55;3.63;;;2.00;;
47429;SDS011;33181;49.246;7.372;2022-09-09T16:09:33;3.80;;;1.93;;
47429;SDS011;33181;49.246;7.372;2022-09-09T16:12:00;6.37;;;2.47;;
47429;SDS011;33181;49.246;7.372;2022-09-09T16:14:31;3.77;;;2.40;;
47429;SDS011;33181;49.246;7.372;2022-09-09T16:17:00;6.87;;;2.40;;
47429;SDS011;33181;49.246;7.372;2022-09-09T16:19:28;4.50;;;2.47;;
47429;SDS011;33181;49.246;7.372;2022-09-09T16:21:54;4.80;;;2.30;;
47429;SDS011;33181;49.246;7.372;2022-09-09T16:24:20;3.27;;;2.10;;
47429;SDS011;33181;49.246;7.372;2022-09-09T16:26:47;7.10;;;2.23;;
47429;SDS011;33181;49.246;7.372;2022-09-09T16:29:16;3.20;;;1.93;;
47429;SDS011;33181;49.246;7.372;2022-09-09T16:31:44;6.80;;;2.57;;
47429;SDS011;33181;49.246;7.372;2022-09-09T16:34:12;4.83;;;2.20;;
47429;SDS011;33181;49.246;7.372;2022-09-09T16:36:39;4.97;;;1.93;;
47429;SDS011;33181;49.246;7.372;2022-09-09T16:39:11;4.80;;;2.10;;
47429;SDS011;33181;49.246;7.372;2022-09-09T16:41:40;6.93;;;2.47;;
47429;SDS011;33181;49.246;7.372;2022-09-09T16:44:09;3.93;;;1.90;;
47429;SDS011;33181;49.246;7.372;2022-09-09T16:46:38;4.57;;;1.80;;
47429;SDS011;33181;49.246;7.372;2022-09-09T16:49:07;2.90;;;1.60;;
47429;SDS011;33181;49.246;7.372;2022-09-09T16:51:47;3.60;;;1.70;;
47429;SDS011;33181;49.246;7.372;2022-09-09T16:54:23;4.23;;;1.67;;
47429;SDS011;33181;49.246;7.372;2022-09-09T16:56:51;4.30;;;2.00;;
47429;SDS011;33181;49.246;7.372;2022-09-09T16:59:19;3.30;;;1.90;;
47429;SDS011;33181;49.246;7.372;2022-09-09T17:01:52;5.63;;;1.90;;
47429;SDS011;33181;49.246;7.372;2022-09-09T17:04:20;3.73;;;2.20;;
47429;SDS011;33181;49.246;7.372;2022-09-09T17:11:27;3.70;;;1.80;;
47429;SDS011;33181;49.246;7.372;2022-09-09T17:13:55;5.40;;;2.00;;
47429;SDS011;33181;49.246;7.372;2022-09-09T17:16:23;4.07;;;1.53;;
47429;SDS011;33181;49.246;7.372;2022-09-09T17:18:55;5.33;;;2.10;;
47429;SDS011;33181;49.246;7.372;2022-09-09T17:21:24;3.63;;;1.60;;
47429;SDS011;33181;49.246;7.372;2022-09-09T17:23:52;3.47;;;1.60;;
47429;SDS011;33181;49.246;7.372;2022-09-09T17:26:20;2.80;;;1.60;;
47429;SDS011;33181;49.246;7.372;2022-09-09T17:28:51;2.40;;;1.70;;
47429;SDS011;33181;49.246;7.372;2022-09-09T17:31:18;2.90;;;1.60;;
47429;SDS011;33181;49.246;7.372;2022-09-09T17:33:45;4.07;;;1.73;;
47429;SDS011;33181;49.246;7.372;2022-09-09T17:36:18;3.13;;;2.13;;
47429;SDS011;33181;49.246;7.372;2022-09-09T17:38:50;3.30;;;1.90;;
47429;SDS011;33181;49.246;7.372;2022-09-09T17:41:38;2.80;;;1.70;;
47429;SDS011;33181;49.246;7.372;2022-09-09T17:44:19;3.93;;;1.63;;
47429;SDS011;33181;49.246;7.372;2022-09-09T17:46:45;3.70;;;2.00;;
47429;SDS011;33181;49.246;7.372;2022-09-09T17:49:12;2.70;;;1.90;;
47429;SDS011;33181;49.246;7.372;2022-09-09T17:51:41;2.47;;;1.90;;
47429;SDS011;33181;49.246;7.372;2022-09-09T17:54:09;3.97;;;2.10;;
47429;SDS011;33181;49.246;7.372;2022-09-09T17:56:41;3.00;;;1.93;;
47429;SDS011;33181;49.246;7.372;2022-09-09T17:59:08;2.90;;;1.83;;
47429;SDS011;33181;49.246;7.372;2022-09-09T18:01:37;3.93;;;1.90;;
47429;SDS011;33181;49.246;7.372;2022-09-09T18:04:06;4.30;;;1.80;;
47429;SDS011;33181;49.246;7.372;2022-09-09T18:06:37;5.27;;;2.00;;
47429;SDS011;33181;49.246;7.372;2022-09-09T18:09:08;3.80;;;1.90;;
47429;SDS011;33181;49.246;7.372;2022-09-09T18:11:41;7.20;;;2.00;;
47429;SDS011;33181;49.246;7.372;2022-09-09T18:14:10;4.63;;;2.57;;
47429;SDS011;33181;49.246;7.372;2022-09-09T18:16:40;5.43;;;1.90;;